createdAt,value
2018-01-28T00:00:31.312Z,46.80
2018-01-28T00:01:36.212Z,46.90
2018-01-28T00:02:40.987Z,46.90
2018-01-28T00:03:46.523Z,46.90
2018-01-28T00:04:51.474Z,46.90
2018-01-28T00:05:56.296Z,46.90
2018-01-28T00:07:01.109Z,46.90
2018-01-28T00:08:06.142Z,46.90
2018-01-28T00:09:10.933Z,46.90
2018-01-28T00:10:15.720Z,47.00
2018-01-28T00:11:20.466Z,46.90
2018-01-28T00:13:40.815Z,46.90
2018-01-28T00:14:45.636Z,47.00
2018-01-28T00:15:50.528Z,46.90
2018-01-28T00:16:55.362Z,47.00
2018-01-28T00:18:00.389Z,47.00
2018-01-28T00:19:06.423Z,46.90
2018-01-28T00:20:11.336Z,46.90
2018-01-28T00:21:16.434Z,46.90
2018-01-28T00:22:21.263Z,46.90
2018-01-28T00:23:26.267Z,46.90
2018-01-28T00:24:31.117Z,46.90
2018-01-28T00:25:36.074Z,47.00
2018-01-28T00:26:41.035Z,46.90
2018-01-28T00:27:45.853Z,46.90
2018-01-28T00:28:50.781Z,46.90
2018-01-28T00:29:55.775Z,47.60
2018-01-28T00:31:00.882Z,47.00
2018-01-28T00:32:05.903Z,47.00
2018-01-28T00:33:10.848Z,47.00
2018-01-28T00:34:15.635Z,47.00
2018-01-28T00:35:20.450Z,47.00
2018-01-28T00:36:25.446Z,47.00
2018-01-28T00:37:31.002Z,47.00
2018-01-28T00:38:35.983Z,47.00
2018-01-28T00:39:40.975Z,47.00
2018-01-28T00:40:45.949Z,47.00
2018-01-28T00:41:51.043Z,47.00
2018-01-28T00:42:56.018Z,47.00
2018-01-28T00:44:00.986Z,47.00
2018-01-28T00:45:05.917Z,47.00
2018-01-28T00:46:10.823Z,47.10
2018-01-28T00:47:15.602Z,47.00
2018-01-28T00:48:20.526Z,47.10
2018-01-28T00:49:25.243Z,47.00
2018-01-28T00:50:30.162Z,47.00
2018-01-28T00:51:35.074Z,47.00
2018-01-28T00:52:40.140Z,47.10
2018-01-28T00:53:44.898Z,47.00
2018-01-28T00:54:49.751Z,47.10
2018-01-28T00:55:55.226Z,47.10
2018-01-28T00:57:00.135Z,47.10
2018-01-28T00:58:05.081Z,47.10
2018-01-28T00:59:09.960Z,47.10
2018-01-28T01:00:14.913Z,47.10
2018-01-28T01:01:19.746Z,47.00
2018-01-28T01:02:24.478Z,47.10
2018-01-28T01:03:29.318Z,47.10
2018-01-28T01:04:34.374Z,47.00
2018-01-28T01:05:39.320Z,47.10
2018-01-28T01:06:44.171Z,47.10
2018-01-28T01:07:49.185Z,47.10
2018-01-28T01:08:54.106Z,47.10
2018-01-28T01:09:59.080Z,47.10
2018-01-28T01:11:03.780Z,47.10
2018-01-28T01:12:08.558Z,47.10
2018-01-28T01:13:13.334Z,47.10
2018-01-28T01:14:18.881Z,47.10
2018-01-28T01:15:23.794Z,47.10
2018-01-28T01:16:28.796Z,47.10
2018-01-28T01:17:33.758Z,47.20
2018-01-28T01:18:38.737Z,47.10
2018-01-28T01:19:43.615Z,47.10
2018-01-28T01:20:48.357Z,47.20
2018-01-28T01:21:53.223Z,47.20
2018-01-28T01:22:58.159Z,47.20
2018-01-28T01:24:03.097Z,47.10
2018-01-28T01:25:07.955Z,47.10
2018-01-28T01:26:12.807Z,47.20
2018-01-28T01:27:17.595Z,47.20
2018-01-28T01:28:22.474Z,47.20
2018-01-28T01:29:27.272Z,47.20
2018-01-28T01:30:32.204Z,47.20
2018-01-28T01:31:37.200Z,47.20
2018-01-28T01:32:42.001Z,47.20
2018-01-28T01:33:46.824Z,47.20
2018-01-28T01:34:51.865Z,47.20
2018-01-28T01:35:57.083Z,47.20
2018-01-28T01:37:02.097Z,47.30
2018-01-28T01:38:07.087Z,47.20
2018-01-28T01:39:12.144Z,47.80
2018-01-28T01:40:17.156Z,47.20
2018-01-28T01:41:22.198Z,47.20
2018-01-28T01:42:27.150Z,47.20
2018-01-28T01:43:32.139Z,47.20
2018-01-28T01:44:37.332Z,47.20
2018-01-28T01:45:42.514Z,47.20
2018-01-28T01:46:47.484Z,47.20
2018-01-28T01:47:52.281Z,47.20
2018-01-28T01:48:57.246Z,47.60
2018-01-28T01:50:02.194Z,47.20
2018-01-28T01:51:07.138Z,47.20
2018-01-28T01:52:12.090Z,47.20
2018-01-28T01:53:16.973Z,47.20
2018-01-28T01:54:21.823Z,47.20
2018-01-28T01:55:26.646Z,47.20
2018-01-28T01:56:31.541Z,47.20
2018-01-28T01:57:36.277Z,47.20
2018-01-28T01:58:41.203Z,47.20
2018-01-28T01:59:45.951Z,47.20
2018-01-28T02:00:50.892Z,47.20
2018-01-28T02:01:55.842Z,47.20
2018-01-28T02:03:01.146Z,47.20
2018-01-28T02:04:06.133Z,47.30
2018-01-28T02:05:11.018Z,47.20
2018-01-28T02:06:15.947Z,47.20
2018-01-28T02:07:20.602Z,47.30
2018-01-28T02:08:25.491Z,47.30
2018-01-28T02:09:30.205Z,47.20
2018-01-28T02:10:35.162Z,47.30
2018-01-28T02:11:40.157Z,47.30
2018-01-28T02:12:45.096Z,47.30
2018-01-28T02:13:49.957Z,47.30
2018-01-28T02:14:54.708Z,47.30
2018-01-28T02:15:59.420Z,47.30
2018-01-28T02:17:04.257Z,47.30
2018-01-28T02:18:09.195Z,47.30
2018-01-28T02:19:14.158Z,47.30
2018-01-28T02:20:18.907Z,47.30
2018-01-28T02:21:24.580Z,47.30
2018-01-28T02:22:29.549Z,47.30
2018-01-28T02:23:34.503Z,47.40
2018-01-28T02:24:39.424Z,47.30
2018-01-28T02:25:44.331Z,47.30
2018-01-28T02:26:49.398Z,47.30
2018-01-28T02:27:54.336Z,47.30
2018-01-28T02:28:59.094Z,47.30
2018-01-28T02:30:03.791Z,47.30
2018-01-28T02:31:08.724Z,47.30
2018-01-28T02:32:13.689Z,47.30
2018-01-28T02:33:18.483Z,47.30
2018-01-28T02:34:23.330Z,47.40
2018-01-28T02:35:28.293Z,47.40
2018-01-28T02:36:33.114Z,47.40
2018-01-28T02:37:37.927Z,47.30
2018-01-28T02:38:42.849Z,47.30
2018-01-28T02:39:48.344Z,47.40
2018-01-28T02:40:53.244Z,47.40
2018-01-28T02:41:58.228Z,47.40
2018-01-28T02:43:03.158Z,47.40
2018-01-28T02:44:08.095Z,47.40
2018-01-28T02:45:13.066Z,47.40
2018-01-28T02:46:17.996Z,47.40
2018-01-28T02:47:22.987Z,47.40
2018-01-28T02:48:27.784Z,47.40
2018-01-28T02:49:32.738Z,47.40
2018-01-28T02:50:37.517Z,47.40
2018-01-28T02:51:42.310Z,47.40
2018-01-28T02:52:47.051Z,47.40
2018-01-28T02:53:52.105Z,47.40
2018-01-28T02:54:57.026Z,47.40
2018-01-28T02:56:02.003Z,47.40
2018-01-28T02:57:06.801Z,47.40
2018-01-28T02:58:12.187Z,47.40
2018-01-28T02:59:16.972Z,47.50
2018-01-28T03:00:21.699Z,47.70
2018-01-28T03:01:26.651Z,47.40
2018-01-28T03:02:31.581Z,47.40
2018-01-28T03:03:36.513Z,47.40
2018-01-28T03:04:41.492Z,47.40
2018-01-28T03:05:46.279Z,47.40
2018-01-28T03:06:51.398Z,47.50
2018-01-28T03:07:56.369Z,47.40
2018-01-28T03:09:01.284Z,47.50
2018-01-28T03:10:06.264Z,47.40
2018-01-28T03:11:11.053Z,47.40
2018-01-28T03:12:15.870Z,47.50
2018-01-28T03:13:20.952Z,47.50
2018-01-28T03:14:25.941Z,47.50
2018-01-28T03:15:30.814Z,47.50
2018-01-28T03:16:36.193Z,47.50
2018-01-28T03:17:41.054Z,47.50
2018-01-28T03:18:45.952Z,47.50
2018-01-28T03:19:51.036Z,47.60
2018-01-28T03:20:55.841Z,47.60
2018-01-28T03:22:00.810Z,47.60
2018-01-28T03:23:05.671Z,47.60
2018-01-28T03:24:10.425Z,47.60
2018-01-28T03:25:15.195Z,47.60
2018-01-28T03:26:20.163Z,47.60
2018-01-28T03:27:25.014Z,47.60
2018-01-28T03:28:29.909Z,47.70
2018-01-28T03:29:34.674Z,47.60
2018-01-28T03:30:39.558Z,47.60
2018-01-28T03:31:44.494Z,47.60
2018-01-28T03:32:49.327Z,47.70
2018-01-28T03:33:54.255Z,47.70
2018-01-28T03:35:00.070Z,47.70
2018-01-28T03:36:04.895Z,47.70
2018-01-28T03:37:09.868Z,47.70
2018-01-28T03:38:14.782Z,47.70
2018-01-28T03:39:19.595Z,47.70
2018-01-28T03:40:24.298Z,47.70
2018-01-28T03:41:29.230Z,47.70
2018-01-28T03:42:34.152Z,47.70
2018-01-28T03:43:38.914Z,47.70
2018-01-28T03:44:44.387Z,47.70
2018-01-28T03:45:49.256Z,47.70
2018-01-28T03:46:54.218Z,47.70
2018-01-28T03:47:58.936Z,47.70
2018-01-28T03:49:03.627Z,47.80
2018-01-28T03:50:08.579Z,47.80
2018-01-28T03:51:13.399Z,47.80
2018-01-28T03:52:18.146Z,47.80
2018-01-28T03:53:23.846Z,47.80
2018-01-28T03:54:28.573Z,47.80
2018-01-28T03:55:33.307Z,47.80
2018-01-28T03:56:38.213Z,47.80
2018-01-28T03:57:43.190Z,47.80
2018-01-28T03:58:48.139Z,47.90
2018-01-28T03:59:53.068Z,47.80
2018-01-28T04:00:58.009Z,47.80
2018-01-28T04:02:02.760Z,47.80
2018-01-28T04:03:07.741Z,47.80
2018-01-28T04:04:12.646Z,47.90
2018-01-28T04:05:17.575Z,47.90
2018-01-28T04:06:22.622Z,47.90
2018-01-28T04:07:27.473Z,47.90
2018-01-28T04:08:32.276Z,47.90
2018-01-28T04:09:37.272Z,47.90
2018-01-28T04:10:42.227Z,47.90
2018-01-28T04:11:47.878Z,47.90
2018-01-28T04:12:52.665Z,47.90
2018-01-28T04:13:57.430Z,47.90
2018-01-28T04:15:02.514Z,47.90
2018-01-28T04:16:07.468Z,47.90
2018-01-28T04:17:12.368Z,47.90
2018-01-28T04:18:17.117Z,47.90
2018-01-28T04:19:22.010Z,47.90
2018-01-28T04:20:26.728Z,47.90
2018-01-28T04:21:31.506Z,48.00
2018-01-28T04:22:36.435Z,47.90
2018-01-28T04:23:41.330Z,48.00
2018-01-28T04:24:46.110Z,48.00
2018-01-28T04:25:51.108Z,48.00
2018-01-28T04:26:56.000Z,48.00
2018-01-28T04:28:00.890Z,48.00
2018-01-28T04:29:05.868Z,48.00
2018-01-28T04:30:11.716Z,48.00
2018-01-28T04:31:16.769Z,48.00
2018-01-28T04:32:21.508Z,48.00
2018-01-28T04:33:26.246Z,48.00
2018-01-28T04:34:31.201Z,48.00
2018-01-28T04:35:36.013Z,48.00
2018-01-28T04:36:40.834Z,48.00
2018-01-28T04:37:45.609Z,48.00
2018-01-28T04:38:50.341Z,48.00
2018-01-28T04:39:55.113Z,48.00
2018-01-28T04:41:00.003Z,48.00
2018-01-28T04:42:04.867Z,48.10
2018-01-28T04:43:09.809Z,48.00
2018-01-28T04:44:14.691Z,48.00
2018-01-28T04:45:19.649Z,48.10
2018-01-28T04:46:24.608Z,48.10
2018-01-28T04:47:29.631Z,48.10
2018-01-28T04:48:35.416Z,48.10
2018-01-28T04:49:40.261Z,48.10
2018-01-28T04:50:45.056Z,48.10
2018-01-28T04:51:49.869Z,48.10
2018-01-28T04:52:54.689Z,48.10
2018-01-28T04:53:59.628Z,48.10
2018-01-28T04:55:04.588Z,48.10
2018-01-28T04:56:09.388Z,48.20
2018-01-28T04:57:14.189Z,48.10
2018-01-28T04:58:19.152Z,48.10
2018-01-28T04:59:24.095Z,48.10
2018-01-28T05:00:29.042Z,48.10
2018-01-28T05:01:33.784Z,48.20
2018-01-28T05:02:38.709Z,48.10
2018-01-28T05:03:43.502Z,48.10
2018-01-28T05:04:48.408Z,48.10
2018-01-28T05:05:53.107Z,48.20
2018-01-28T05:06:58.925Z,48.20
2018-01-28T05:08:03.985Z,48.20
2018-01-28T05:09:08.929Z,48.20
2018-01-28T05:10:13.589Z,48.20
2018-01-28T05:11:18.301Z,48.20
2018-01-28T05:12:23.053Z,48.20
2018-01-28T05:13:27.849Z,48.20
2018-01-28T05:14:32.584Z,48.20
2018-01-28T05:15:37.511Z,48.20
2018-01-28T05:16:42.400Z,48.20
2018-01-28T05:17:47.185Z,48.20
2018-01-28T05:18:52.044Z,48.20
2018-01-28T05:19:57.018Z,48.20
2018-01-28T05:21:01.947Z,48.20
2018-01-28T05:22:06.964Z,48.20
2018-01-28T05:23:11.643Z,48.20
2018-01-28T05:24:16.362Z,48.20
2018-01-28T05:25:22.276Z,48.20
2018-01-28T05:26:27.290Z,48.30
2018-01-28T05:27:32.208Z,48.30
2018-01-28T05:28:37.217Z,48.30
2018-01-28T05:29:42.254Z,48.20
2018-01-28T05:30:47.162Z,48.20
2018-01-28T05:31:51.937Z,48.30
2018-01-28T05:32:56.837Z,48.20
2018-01-28T05:34:01.758Z,48.30
2018-01-28T05:35:06.772Z,48.30
2018-01-28T05:36:11.740Z,48.30
2018-01-28T05:37:16.668Z,48.30
2018-01-28T05:38:21.476Z,48.30
2018-01-28T05:39:26.430Z,48.30
2018-01-28T05:40:32.188Z,48.30
2018-01-28T05:41:36.949Z,48.30
2018-01-28T05:42:41.929Z,48.30
2018-01-28T05:43:47.659Z,48.30
2018-01-28T05:44:52.580Z,48.30
2018-01-28T05:45:57.536Z,48.30
2018-01-28T05:47:02.440Z,48.30
2018-01-28T05:48:07.239Z,48.30
2018-01-28T05:49:12.150Z,48.30
2018-01-28T05:50:16.912Z,48.30
2018-01-28T05:51:21.780Z,48.30
2018-01-28T05:52:26.671Z,48.30
2018-01-28T05:53:31.460Z,48.30
2018-01-28T05:54:36.427Z,48.30
2018-01-28T05:55:41.351Z,48.30
2018-01-28T05:56:46.138Z,48.30
2018-01-28T05:57:51.001Z,48.30
2018-01-28T05:58:55.925Z,48.40
2018-01-28T06:00:00.867Z,48.30
2018-01-28T06:01:05.772Z,48.30
2018-01-28T06:02:11.552Z,48.40
2018-01-28T06:03:16.448Z,48.50
2018-01-28T06:04:21.265Z,48.50
2018-01-28T06:05:26.162Z,48.50
2018-01-28T06:06:30.902Z,48.50
2018-01-28T06:07:35.848Z,48.50
2018-01-28T06:08:40.786Z,48.50
2018-01-28T06:09:45.652Z,48.50
2018-01-28T06:10:50.687Z,48.50
2018-01-28T06:11:55.672Z,48.50
2018-01-28T06:13:00.772Z,48.50
2018-01-28T06:14:05.772Z,48.50
2018-01-28T06:15:10.644Z,48.50
2018-01-28T06:16:15.523Z,48.50
2018-01-28T06:17:20.457Z,48.50
2018-01-28T06:18:25.237Z,48.60
2018-01-28T06:19:30.243Z,48.60
2018-01-28T06:20:36.164Z,48.60
2018-01-28T06:21:40.979Z,48.60
2018-01-28T06:22:45.742Z,48.60
2018-01-28T06:23:50.576Z,48.50
2018-01-28T06:24:55.563Z,48.60
2018-01-28T06:26:00.627Z,48.60
2018-01-28T06:27:05.610Z,48.60
2018-01-28T06:28:10.602Z,48.60
2018-01-28T06:29:15.359Z,48.60
2018-01-28T06:30:20.247Z,48.60
2018-01-28T06:31:25.114Z,48.60
2018-01-28T06:32:30.142Z,48.60
2018-01-28T06:33:34.929Z,48.70
2018-01-28T06:34:40.004Z,48.60
2018-01-28T06:35:44.803Z,48.70
2018-01-28T06:36:49.551Z,48.60
2018-01-28T06:37:54.414Z,48.60
2018-01-28T06:39:00.054Z,48.70
2018-01-28T06:40:05.080Z,48.60
2018-01-28T06:41:09.829Z,48.70
2018-01-28T06:42:14.865Z,48.70
2018-01-28T06:43:19.830Z,48.70
2018-01-28T06:44:24.800Z,48.70
2018-01-28T06:45:30.516Z,48.70
2018-01-28T06:46:35.478Z,48.70
2018-01-28T06:47:40.365Z,48.70
2018-01-28T06:48:45.891Z,48.70
2018-01-28T06:49:50.684Z,48.70
2018-01-28T06:50:55.429Z,48.70
2018-01-28T06:52:00.395Z,48.80
2018-01-28T06:53:05.206Z,48.80
2018-01-28T06:54:10.190Z,48.80
2018-01-28T06:55:15.096Z,48.70
2018-01-28T06:56:20.051Z,48.70
2018-01-28T06:57:25.205Z,48.70
2018-01-28T06:58:29.964Z,48.70
2018-01-28T06:59:34.903Z,48.80
2018-01-28T07:00:39.736Z,48.60
2018-01-28T07:01:44.476Z,48.60
2018-01-28T07:02:49.312Z,48.60
2018-01-28T07:03:54.016Z,48.60
2018-01-28T07:04:58.766Z,48.50
2018-01-28T07:06:03.589Z,48.60
2018-01-28T07:07:08.619Z,48.60
2018-01-28T07:08:13.466Z,48.50
2018-01-28T07:09:18.525Z,48.50
2018-01-28T07:10:23.487Z,48.60
2018-01-28T07:11:28.450Z,48.60
2018-01-28T07:12:33.316Z,48.60
2018-01-28T07:13:38.276Z,48.50
2018-01-28T07:14:43.308Z,48.60
2018-01-28T07:15:49.359Z,48.60
2018-01-28T07:16:54.457Z,48.60
2018-01-28T07:17:59.497Z,48.50
2018-01-28T07:19:04.465Z,48.50
2018-01-28T07:20:09.324Z,48.50
2018-01-28T07:21:14.349Z,48.50
2018-01-28T07:22:19.233Z,48.50
2018-01-28T07:23:24.770Z,48.50
2018-01-28T07:24:29.792Z,48.50
2018-01-28T07:25:34.841Z,48.50
2018-01-28T07:26:39.765Z,48.60
2018-01-28T07:27:44.726Z,48.60
2018-01-28T07:28:49.531Z,48.60
2018-01-28T07:29:54.381Z,48.60
2018-01-28T07:30:59.242Z,48.60
2018-01-28T07:32:04.304Z,48.60
2018-01-28T07:33:09.425Z,48.50
2018-01-28T07:34:14.290Z,48.60
2018-01-28T07:35:19.134Z,48.60
2018-01-28T07:36:24.158Z,48.30
2018-01-28T07:37:28.930Z,47.90
2018-01-28T07:38:33.837Z,47.50
2018-01-28T07:39:38.681Z,47.10
2018-01-28T07:40:43.421Z,46.80
2018-01-28T07:41:48.449Z,46.50
2018-01-28T07:42:53.415Z,46.30
2018-01-28T07:43:58.244Z,46.10
2018-01-28T07:45:03.363Z,45.90
2018-01-28T07:46:08.111Z,45.70
2018-01-28T07:47:13.124Z,45.60
2018-01-28T07:48:17.862Z,45.40
2018-01-28T07:49:22.827Z,45.30
2018-01-28T07:50:27.890Z,45.20
2018-01-28T07:51:33.576Z,45.20
2018-01-28T07:52:38.656Z,45.10
2018-01-28T07:53:43.542Z,45.00
2018-01-28T07:54:48.347Z,44.90
2018-01-28T07:55:53.095Z,44.80
2018-01-28T07:56:58.515Z,44.80
2018-01-28T07:58:03.467Z,44.90
2018-01-28T07:59:08.499Z,45.00
2018-01-28T08:00:13.499Z,45.10
2018-01-28T08:01:18.294Z,45.10
2018-01-28T08:02:23.325Z,45.10
2018-01-28T08:03:28.339Z,45.20
2018-01-28T08:04:33.466Z,45.30
2018-01-28T08:05:38.523Z,45.30
2018-01-28T08:06:43.424Z,45.40
2018-01-28T08:07:48.435Z,45.60
2018-01-28T08:08:53.383Z,45.60
2018-01-28T08:09:58.631Z,45.60
2018-01-28T08:11:03.536Z,45.70
2018-01-28T08:12:08.408Z,45.70
2018-01-28T08:13:13.204Z,45.80
2018-01-28T08:14:18.204Z,45.80
2018-01-28T08:15:23.127Z,45.90
2018-01-28T08:16:28.163Z,45.90
2018-01-28T08:17:32.938Z,46.00
2018-01-28T08:18:37.810Z,46.00
2018-01-28T08:19:42.625Z,46.20
2018-01-28T08:20:47.449Z,46.20
2018-01-28T08:21:52.379Z,46.20
2018-01-28T08:22:57.403Z,46.30
2018-01-28T08:24:02.263Z,46.30
2018-01-28T08:25:07.269Z,46.30
2018-01-28T08:26:12.035Z,46.30
2018-01-28T08:27:16.825Z,46.30
2018-01-28T08:28:21.704Z,46.30
2018-01-28T08:29:26.557Z,46.40
2018-01-28T08:30:31.478Z,46.40
2018-01-28T08:31:36.579Z,46.40
2018-01-28T08:32:41.486Z,46.50
2018-01-28T08:33:46.426Z,46.50
2018-01-28T08:34:51.247Z,46.50
2018-01-28T08:35:56.471Z,46.60
2018-01-28T08:37:01.442Z,46.60
2018-01-28T08:38:06.481Z,46.60
2018-01-28T08:39:11.406Z,46.60
2018-01-28T08:40:16.188Z,46.60
2018-01-28T08:41:21.262Z,46.60
2018-01-28T08:42:26.202Z,46.50
2018-01-28T08:43:31.136Z,46.10
2018-01-28T08:44:35.885Z,46.20
2018-01-28T08:45:40.703Z,45.40
2018-01-28T08:46:45.729Z,45.20
2018-01-28T08:47:50.700Z,45.00
2018-01-28T08:48:55.749Z,45.10
2018-01-28T08:50:00.789Z,45.00
2018-01-28T08:51:05.768Z,45.10
2018-01-28T08:52:10.791Z,45.30
2018-01-28T08:53:15.695Z,45.50
2018-01-28T08:54:20.786Z,45.60
2018-01-28T08:55:25.762Z,45.60
2018-01-28T08:56:31.429Z,45.70
2018-01-28T08:57:37.409Z,45.70
2018-01-28T08:58:42.968Z,45.80
2018-01-28T08:59:47.938Z,45.80
2018-01-28T09:00:53.556Z,45.90
2018-01-28T09:01:58.384Z,46.10
2018-01-28T09:03:03.398Z,46.20
2018-01-28T09:04:08.380Z,46.30
2018-01-28T09:05:13.277Z,46.30
2018-01-28T09:06:18.263Z,46.60
2018-01-28T09:07:23.249Z,46.50
2018-01-28T09:08:28.008Z,47.30
2018-01-28T09:09:32.917Z,46.80
2018-01-28T09:10:38.264Z,46.90
2018-01-28T09:11:43.334Z,47.00
2018-01-28T09:12:48.226Z,47.00
2018-01-28T09:13:53.300Z,47.00
2018-01-28T09:15:00.252Z,47.10
2018-01-28T09:16:05.221Z,47.20
2018-01-28T09:17:10.317Z,47.20
2018-01-28T09:18:15.196Z,47.20
2018-01-28T09:19:20.120Z,47.30
2018-01-28T09:20:25.141Z,47.20
2018-01-28T09:21:30.118Z,47.30
2018-01-28T09:22:34.958Z,47.40
2018-01-28T09:23:40.037Z,47.40
2018-01-28T09:24:45.038Z,47.30
2018-01-28T09:25:49.851Z,47.50
2018-01-28T09:26:54.913Z,47.40
2018-01-28T09:27:59.964Z,47.50
2018-01-28T09:29:04.940Z,47.50
2018-01-28T09:30:09.739Z,47.50
2018-01-28T09:31:14.661Z,47.60
2018-01-28T09:32:19.866Z,47.60
2018-01-28T09:33:25.722Z,48.20
2018-01-28T09:34:30.633Z,47.70
2018-01-28T09:35:35.723Z,47.60
2018-01-28T09:36:40.872Z,47.70
2018-01-28T09:37:45.807Z,47.70
2018-01-28T09:38:51.084Z,47.70
2018-01-28T09:39:56.034Z,47.70
2018-01-28T09:41:01.194Z,47.70
2018-01-28T09:42:06.318Z,47.70
2018-01-28T09:43:11.326Z,47.70
2018-01-28T09:44:17.174Z,47.70
2018-01-28T09:45:22.429Z,47.70
2018-01-28T09:46:27.343Z,47.60
2018-01-28T09:47:32.349Z,47.60
2018-01-28T09:48:37.186Z,47.60
2018-01-28T09:49:42.184Z,47.70
2018-01-28T09:50:47.149Z,47.80
2018-01-28T09:51:52.071Z,47.80
2018-01-28T09:52:57.060Z,47.90
2018-01-28T09:54:01.966Z,48.00
2018-01-28T09:55:07.079Z,48.00
2018-01-28T09:56:12.347Z,48.10
2018-01-28T09:57:17.552Z,48.20
2018-01-28T09:58:22.420Z,48.30
2018-01-28T09:59:27.526Z,48.30
2018-01-28T10:00:32.265Z,48.30
2018-01-28T10:01:37.449Z,48.40
2018-01-28T10:02:42.500Z,48.50
2018-01-28T10:03:47.252Z,48.40
2018-01-28T10:04:52.146Z,48.30
2018-01-28T10:05:57.474Z,48.30
2018-01-28T10:07:02.660Z,48.30
2018-01-28T10:08:07.673Z,48.40
2018-01-28T10:09:12.524Z,48.50
2018-01-28T10:10:17.561Z,48.60
2018-01-28T10:11:22.412Z,48.60
2018-01-28T10:12:27.242Z,48.70
2018-01-28T10:13:32.063Z,48.70
2018-01-28T10:14:37.057Z,48.70
2018-01-28T10:15:42.168Z,48.80
2018-01-28T10:16:47.090Z,48.80
2018-01-28T10:17:51.982Z,48.70
2018-01-28T10:18:56.817Z,48.70
2018-01-28T10:20:01.950Z,48.70
2018-01-28T10:21:06.807Z,48.70
2018-01-28T10:22:11.714Z,48.80
2018-01-28T10:23:16.769Z,48.70
2018-01-28T10:24:21.732Z,48.80
2018-01-28T10:25:26.792Z,48.80
2018-01-28T10:26:31.576Z,48.80
2018-01-28T10:27:36.442Z,48.70
2018-01-28T10:28:41.233Z,48.70
2018-01-28T10:29:46.391Z,48.80
2018-01-28T10:30:51.292Z,48.90
2018-01-28T10:31:56.433Z,48.90
2018-01-28T10:33:01.451Z,48.80
2018-01-28T10:34:06.822Z,48.80
2018-01-28T10:35:11.858Z,49.00
2018-01-28T10:36:16.888Z,49.00
2018-01-28T10:37:22.047Z,49.00
2018-01-28T10:38:26.991Z,48.80
2018-01-28T10:39:31.960Z,48.90
2018-01-28T10:40:37.132Z,48.90
2018-01-28T10:41:42.315Z,48.90
2018-01-28T10:42:47.352Z,49.00
2018-01-28T10:43:52.154Z,49.10
2018-01-28T10:44:57.797Z,49.00
2018-01-28T10:46:02.658Z,48.90
2018-01-28T10:47:07.741Z,49.00
2018-01-28T10:48:12.655Z,48.90
2018-01-28T10:49:17.922Z,49.00
2018-01-28T10:50:22.966Z,48.90
2018-01-28T10:51:28.126Z,49.00
2018-01-28T10:52:33.087Z,48.80
2018-01-28T10:53:38.046Z,48.70
2018-01-28T10:54:43.003Z,48.60
2018-01-28T10:55:47.949Z,48.50
2018-01-28T10:56:52.909Z,48.40
2018-01-28T10:57:57.922Z,48.40
2018-01-28T10:59:03.019Z,48.40
2018-01-28T11:00:08.100Z,48.40
2018-01-28T11:01:13.162Z,48.40
2018-01-28T11:02:19.652Z,48.50
2018-01-28T11:03:24.847Z,48.50
2018-01-28T11:04:30.559Z,48.60
2018-01-28T11:05:35.558Z,48.40
2018-01-28T11:06:40.625Z,48.40
2018-01-28T11:07:45.539Z,48.50
2018-01-28T11:08:50.583Z,48.60
2018-01-28T11:09:55.762Z,48.70
2018-01-28T11:11:00.849Z,48.80
2018-01-28T11:12:06.670Z,48.90
2018-01-28T11:13:11.532Z,49.60
2018-01-28T11:14:16.289Z,49.00
2018-01-28T11:15:21.234Z,49.10
2018-01-28T11:16:26.165Z,49.10
2018-01-28T11:17:31.207Z,49.10
2018-01-28T11:18:36.270Z,49.20
2018-01-28T11:19:41.330Z,49.20
2018-01-28T11:20:46.508Z,49.30
2018-01-28T11:21:51.558Z,49.20
2018-01-28T11:22:56.498Z,49.30
2018-01-28T11:24:01.734Z,49.30
2018-01-28T11:25:06.824Z,49.40
2018-01-28T11:26:12.020Z,49.40
2018-01-28T11:27:16.954Z,49.50
2018-01-28T11:28:22.052Z,49.50
2018-01-28T11:29:27.199Z,49.60
2018-01-28T11:30:32.278Z,49.50
2018-01-28T11:31:37.576Z,49.50
2018-01-28T11:32:42.494Z,49.50
2018-01-28T11:33:47.564Z,49.60
2018-01-28T11:34:52.532Z,49.70
2018-01-28T11:35:57.488Z,49.60
2018-01-28T11:37:02.387Z,49.70
2018-01-28T11:38:07.591Z,49.70
2018-01-28T11:39:12.771Z,49.60
2018-01-28T11:40:17.547Z,49.70
2018-01-28T11:41:22.474Z,49.80
2018-01-28T11:42:27.446Z,49.80
2018-01-28T11:43:32.471Z,49.80
2018-01-28T11:44:37.380Z,49.80
2018-01-28T11:45:42.284Z,49.80
2018-01-28T11:46:47.225Z,49.80
2018-01-28T11:47:52.187Z,49.90
2018-01-28T11:48:57.568Z,49.90
2018-01-28T11:50:02.562Z,49.90
2018-01-28T11:51:07.600Z,49.90
2018-01-28T11:52:12.464Z,50.00
2018-01-28T11:53:17.599Z,50.00
2018-01-28T11:54:22.586Z,50.00
2018-01-28T11:55:27.539Z,50.00
2018-01-28T11:56:32.650Z,50.10
2018-01-28T11:57:37.542Z,50.00
2018-01-28T11:58:42.447Z,50.10
2018-01-28T11:59:47.242Z,50.10
2018-01-28T12:00:52.327Z,50.00
2018-01-28T12:01:57.214Z,50.10
2018-01-28T12:03:03.864Z,50.20
2018-01-28T12:04:09.374Z,50.10
2018-01-28T12:05:14.191Z,50.10
2018-01-28T12:06:18.937Z,50.10
2018-01-28T12:07:24.011Z,50.10
2018-01-28T12:08:29.016Z,50.10
2018-01-28T12:09:34.075Z,50.10
2018-01-28T12:10:39.002Z,50.20
2018-01-28T12:11:43.860Z,50.10
2018-01-28T12:12:49.368Z,50.20
2018-01-28T12:13:54.162Z,50.30
2018-01-28T12:14:59.591Z,50.20
2018-01-28T12:16:04.703Z,50.20
2018-01-28T12:17:09.728Z,50.20
2018-01-28T12:18:14.758Z,50.30
2018-01-28T12:19:19.783Z,50.30
2018-01-28T12:20:25.177Z,50.20
2018-01-28T12:21:30.258Z,50.30
2018-01-28T12:22:35.417Z,50.30
2018-01-28T12:23:40.342Z,50.30
2018-01-28T12:24:45.275Z,50.30
2018-01-28T12:25:50.125Z,50.20
2018-01-28T12:26:55.290Z,50.30
2018-01-28T12:28:00.038Z,50.20
2018-01-28T12:29:04.856Z,50.20
2018-01-28T12:30:09.822Z,50.30
2018-01-28T12:31:15.834Z,50.30
2018-01-28T12:32:20.954Z,50.30
2018-01-28T12:33:25.922Z,50.40
2018-01-28T12:34:31.035Z,50.30
2018-01-28T12:35:36.162Z,50.40
2018-01-28T12:36:41.117Z,50.40
2018-01-28T12:37:46.015Z,50.50
2018-01-28T12:38:50.893Z,50.30
2018-01-28T12:39:55.740Z,50.40
2018-01-28T12:41:00.767Z,50.30
2018-01-28T12:42:05.836Z,50.40
2018-01-28T12:43:10.894Z,50.50
2018-01-28T12:44:15.737Z,50.50
2018-01-28T12:45:20.734Z,50.40
2018-01-28T12:46:25.887Z,50.40
2018-01-28T12:47:30.903Z,50.50
2018-01-28T12:48:35.839Z,50.40
2018-01-28T12:49:41.154Z,50.40
2018-01-28T12:50:45.912Z,50.50
2018-01-28T12:51:50.913Z,50.50
2018-01-28T12:52:55.861Z,50.40
2018-01-28T12:54:00.767Z,50.40
2018-01-28T12:55:05.634Z,50.40
2018-01-28T12:56:10.494Z,50.40
2018-01-28T12:57:15.593Z,50.50
2018-01-28T12:58:21.163Z,50.40
2018-01-28T12:59:26.035Z,50.50
2018-01-28T13:00:30.939Z,50.50
2018-01-28T13:01:35.947Z,50.50
2018-01-28T13:02:41.003Z,50.50
2018-01-28T13:03:45.864Z,50.50
2018-01-28T13:04:51.507Z,50.50
2018-01-28T13:05:56.646Z,50.50
2018-01-28T13:07:01.849Z,50.50
2018-01-28T13:08:06.864Z,50.50
2018-01-28T13:09:12.036Z,50.50
2018-01-28T13:10:17.045Z,50.50
2018-01-28T13:11:22.245Z,50.50
2018-01-28T13:12:27.783Z,50.50
2018-01-28T13:13:33.167Z,50.60
2018-01-28T13:14:38.515Z,50.60
2018-01-28T13:15:43.330Z,50.60
2018-01-28T13:16:48.190Z,50.50
2018-01-28T13:17:53.000Z,50.50
2018-01-28T13:18:57.774Z,50.50
2018-01-28T13:20:02.713Z,50.40
2018-01-28T13:21:07.501Z,50.50
2018-01-28T13:22:12.322Z,50.50
2018-01-28T13:23:17.228Z,50.50
2018-01-28T13:24:22.632Z,50.50
2018-01-28T13:25:27.950Z,50.50
2018-01-28T13:26:32.870Z,50.50
2018-01-28T13:27:37.963Z,50.60
2018-01-28T13:28:43.182Z,50.50
2018-01-28T13:29:48.054Z,50.50
2018-01-28T13:30:53.001Z,50.60
2018-01-28T13:31:58.212Z,50.60
2018-01-28T13:33:03.136Z,50.60
2018-01-28T13:34:08.148Z,50.60
2018-01-28T13:35:12.966Z,50.60
2018-01-28T13:36:18.144Z,50.50
2018-01-28T13:37:23.302Z,50.60
2018-01-28T13:38:28.414Z,50.60
2018-01-28T13:39:33.680Z,50.60
2018-01-28T13:40:38.764Z,50.60
2018-01-28T13:41:43.743Z,50.60
2018-01-28T13:42:48.796Z,50.50
2018-01-28T13:43:53.810Z,50.60
2018-01-28T13:44:58.783Z,50.60
2018-01-28T13:46:03.776Z,50.60
2018-01-28T13:47:09.369Z,50.60
2018-01-28T13:48:14.477Z,50.60
2018-01-28T13:49:19.417Z,50.60
2018-01-28T13:50:24.722Z,50.70
2018-01-28T13:51:29.797Z,50.60
2018-01-28T13:52:35.111Z,50.60
2018-01-28T13:53:40.125Z,50.60
2018-01-28T13:54:45.103Z,50.60
2018-01-28T13:55:50.122Z,50.60
2018-01-28T13:56:54.950Z,50.60
2018-01-28T13:57:59.789Z,50.60